My webcam more information My webcam


Visit other weathersites:

Galway City Weather

Moycullen Weather

Waterford City Weather

Charlestown Weather

Clevedon Weather



Nearby METAR Reports

   
EBAW - Antwerp
Updated: 25-06-2017 12:50
Mostly Cloudy  
Mostly Cloudy  
   Wind: WSW 18.5 km/h
Wind: WSW 18.5 km/h
Temperature: 20°C
Dew Point: 12°C
Humidity: 60%
Barometer: 1013 hPa
Clouds: Mostly Cloudy
Visibility: More than 10 km
Cloud details: Partly Cloudy 883.9 m,
Mostly Cloudy 1097.3 m
EBAW 251150Z 24010KT 220V280 9999 SCT029 BKN036 20/12 Q1013 NOSIG
EBLG - Li├Ęge
Updated: 25-06-2017 12:50
Mostly Cloudy  
Mostly Cloudy  
   Wind: West 25.9 km/h
Wind: West 25.9 km/h
Temperature: 20°C
Dew Point: 11°C
Humidity: 56%
Barometer: 1014 hPa
Clouds: Mostly Cloudy
Visibility: More than 10 km
Cloud details: Partly Cloudy 1066.8 m,
Mostly Cloudy 1310.6 m
EBLG 251150Z 26014KT 230V290 9999 SCT035 BKN043 20/11 Q1014 NOSIG
EBCV - Mons/Bergen
Updated: 25-06-2017 12:55
Mostly Cloudy  
Mostly Cloudy  
   Wind: WSW 24.1 km/h
Wind: WSW 24.1 km/h
Temperature: 21°C
Dew Point: 11°C
Humidity: 53%
Barometer: 1014 hPa
Clouds: Mostly Cloudy
Visibility: More than 10 km
Cloud details: Partly Cloudy 1066.8 m,
Mostly Cloudy 1493.5 m
EBCV 251155Z AUTO 24013KT 9999 SCT035/// BKN049/// 21/11 Q1014 BLU
EHBK - Maastricht
Updated: 25-06-2017 12:55
Overcast  
Overcast  
   Wind: WSW 22.2 km/h
Wind: WSW 22.2 km/h
Temperature: 19°C
Dew Point: 12°C
Humidity: 64%
Barometer: 1013 hPa
Clouds: Overcast
Visibility: More than 10 km
Cloud details: Overcast 1005.8 m
EHBK 251155Z AUTO 24012KT 190V290 9999 OVC033 19/12 Q1013 NOSIG
ELLX - Luxemburg
Updated: 25-06-2017 12:50
Mostly Cloudy  
Mostly Cloudy  
   Wind: WSW 25.9 km/h
Wind: WSW 25.9 km/h
Temperature: 20°C
Dew Point: 14°C
Humidity: 69%
Barometer: 1015 hPa
Clouds: Mostly Cloudy
Visibility: More than 10 km
Cloud details: Few Clouds 792.5 m,
Mostly Cloudy 1524 m
ELLX 251150Z 24014KT 9999 FEW026 BKN050 20/14 Q1015 NOSIG
EBOS - Oostende
Updated: 25-06-2017 12:50
Mostly Cloudy  
Mostly Cloudy  
   Wind: West 29.6 km/h
Wind: West 29.6 km/h
Temperature: 18°C
Dew Point: 13°C
Humidity: 73%
Barometer: 1014 hPa
Clouds: Mostly Cloudy
Visibility: More than 10 km
Cloud details: Few Clouds 548.6 m,
Mostly Cloudy 762 m
EBOS 251150Z 26016KT 9999 FEW018 BKN025 18/13 Q1014 NOSIG

Script developed by  Saratoga-weather.org Adapted for the template by  Weerstation Leuven

You find our weather info also at:

UK Metoffice

Weather Underground

Equipment we use:

Weather-station
Davis Vantage Vue

Weather-program
Weather Display

Weather-server
Dell 3050 Micro Desktop

Provider
RS Hosting

Davis Vantage Vue

Weather Display

Dell 3050 Micro Desktop

RS Hosting